Mapleville, Rhode Island
Current Conditions -  °F | °C
As of 7:15 AM on Saturday 01 Nov 2014 (Local Time) from KSFZ Reporting Station
Overcast Overcast  
Wind Chill: 33°   Ceiling: 8500
Heat Index: 41°   Visibility: 10mi
Dew Point: 27°   Wind: 14mph
Humidity: 57%   Direction: 20°NNE
Pressure: 29.87"   Gusts: NA
Location:  41.95°N, 71.65°W
Report Text: KSFZ 011115Z 02012KT 10SM OVC085 05/M03 A2987 RMK AO1
Loading
Personal Weather Stations






























Interactive Weather Map
Tropical Storm Tracking
New forecast layout! Learn more

10-Day Weather Forecast

Advertisements
Track Severe Weather on mobile